Trail, Ohio
Current Conditions -  °F | °C
As of 3:53 PM on Tuesday 21 Oct 2014 (Local Time) from KPHD Reporting Station
Overcast Overcast  
Wind Chill: 51°   Ceiling: 2700
Heat Index: 51°   Visibility: 10mi
Dew Point: 44°   Wind: 12mph
Humidity: 77%   Direction: 330°NNW
Pressure: 29.97"   Gusts: NA
Location:  40.5891°N, 81.6218°W
Report Text: KPHD 211953Z AUTO 33010KT 10SM SCT020 BKN027 OVC036 11/07 A2997 RMK AO2 RAB11E23 SLP151 P0000 T01060067
Loading
Personal Weather Stations






























Interactive Weather Map
Tropical Storm Tracking
New forecast layout! Learn more

10-Day Weather Forecast

Advertisements
Track Severe Weather on mobile